Time;durP1;ratioP1;P1;durP2;ratioP2;P2;SDS_P1;SDS_P2;PMS_P1;PMS_P2;Temp;Humidity;BMP_temperature;BMP_pressure;BME280_temperature;BME280_humidity;BME280_pressure;Samples;Min_cycle;Max_cycle;Signal;HPM_P1;HPM_P2
2022/09/13 00:00:38;;;;;;;;;;;;;;;18.62;100.00;101024.19;5071662;28;19970;-38
2022/09/13 00:03:07;;;;;;;;;;;;;;;18.62;100.00;101014.88;5072234;28;19929;-36
2022/09/13 00:05:35;;;;;;;;;;;;;;;18.63;100.00;101023.00;5072100;28;19924;-36
2022/09/13 00:08:03;;;;;;;;;;;;;;;18.63;100.00;101025.84;5071115;28;19952;-44
2022/09/13 00:10:31;;;;;;;;;;;;;;;18.66;100.00;101024.31;5072185;28;20419;-33
2022/09/13 00:12:59;;;;;;;;;;;;;;;18.66;100.00;101021.50;5071699;28;20374;-35
2022/09/13 00:15:27;;;;;;;;;;;;;;;18.68;100.00;101033.28;5071197;28;20415;-42
2022/09/13 00:17:56;;;;;;;;;;;;;;;18.69;100.00;101029.28;5071766;28;19960;-32
2022/09/13 00:20:23;;;;;;;;;;;;;;;18.71;100.00;101029.75;5072148;28;20047;-33
2022/09/13 00:22:51;;;;;;;;;;;;;;;18.72;100.00;101031.41;5070824;28;20339;-33
2022/09/13 00:25:19;;;;;;;;;;;;;;;18.74;100.00;101024.22;5071830;28;19974;-33
2022/09/13 00:27:47;;;;;;;;;;;;;;;18.75;100.00;101023.06;5071155;28;19978;-33
2022/09/13 00:30:14;;;;;;;;;;;;;;;18.77;100.00;101017.88;5070896;28;20019;-36
2022/09/13 00:32:42;;;;;;;;;;;;;;;18.77;100.00;101003.75;5071477;28;19954;-39
2022/09/13 00:35:10;;;;;;;;;;;;;;;18.79;100.00;101004.19;5067173;28;20386;-32
2022/09/13 00:37:38;;;;;;;;;;;;;;;18.79;100.00;101003.38;5070776;28;19978;-31
2022/09/13 00:40:06;;;;;;;;;;;;;;;18.79;100.00;101003.38;5071493;28;19928;-37
2022/09/13 00:42:34;;;;;;;;;;;;;;;18.78;100.00;100996.91;5071460;28;19939;-33
2022/09/13 00:45:02;;;;;;;;;;;;;;;18.78;100.00;100994.09;5070833;28;19928;-35
2022/09/13 00:47:33;;;;;;;;;;;;;;;18.78;100.00;100991.25;5071632;28;19932;-32
2022/09/13 00:50:04;;;;;;;;;;;;;;;18.78;100.00;100987.59;5065707;28;20340;-40
2022/09/13 00:52:35;;;;;;;;;;;;;;;18.80;100.00;100999.34;5071534;28;19978;-34
2022/09/13 00:55:04;;;;;;;;;;;;;;;18.81;100.00;100992.53;5071223;28;19983;-39
2022/09/13 00:57:34;;;;;;;;;;;;;;;18.82;100.00;100986.53;5052627;28;19947;-33
2022/09/13 01:00:07;;;;;;;;;;;;;;;18.83;100.00;100988.19;5071392;28;19962;-40
2022/09/13 01:02:35;;;;;;;;;;;;;;;18.85;100.00;100980.19;5070409;28;20381;-38
2022/09/13 01:05:03;;;;;;;;;;;;;;;18.85;100.00;100983.00;5067009;28;19928;-35
2022/09/13 01:07:30;;;;;;;;;;;;;;;18.85;100.00;100979.34;5071202;28;19964;-36
2022/09/13 01:09:59;;;;;;;;;;;;;;;18.85;100.00;100979.34;5071006;28;19978;-33
2022/09/13 01:12:32;;;;;;;;;;;;;;;18.87;100.00;100982.66;5070830;28;19967;-34
2022/09/13 01:15:00;;;;;;;;;;;;;;;18.86;100.00;100984.66;5070881;28;20439;-33
2022/09/13 01:17:29;;;;;;;;;;;;;;;18.87;100.00;100977.81;5071970;28;19932;-39
2022/09/13 01:19:57;;;;;;;;;;;;;;;18.87;100.00;100977.00;5069940;28;19929;-34
2022/09/13 01:22:35;;;;;;;;;;;;;;;18.88;100.00;100967.34;5071199;28;19978;-38
2022/09/13 01:25:17;;;;;;;;;;;;;;;18.90;100.00;100964.97;5070292;28;19963;-40
2022/09/13 01:27:51;;;;;;;;;;;;;;;18.91;100.00;100975.13;5027954;28;19998;-38
2022/09/13 01:30:20;;;;;;;;;;;;;;;18.91;100.00;100980.78;5070575;28;19968;-33
2022/09/13 01:33:03;;;;;;;;;;;;;;;18.92;100.00;100982.44;5070705;28;19932;-34
2022/09/13 01:35:39;;;;;;;;;;;;;;;18.92;100.00;100974.78;5070832;28;19929;-40
2022/09/13 01:38:14;;;;;;;;;;;;;;;18.93;100.00;100978.41;5071295;28;19986;-32
2022/09/13 01:40:51;;;;;;;;;;;;;;;18.92;100.00;100974.78;5069790;28;19928;-33
2022/09/13 01:43:25;;;;;;;;;;;;;;;18.92;100.00;100973.94;5071423;28;19928;-33
2022/09/13 01:45:59;;;;;;;;;;;;;;;18.92;100.00;100969.13;5070781;28;20333;-40
2022/09/13 01:48:34;;;;;;;;;;;;;;;18.91;100.00;100967.47;5070248;28;19930;-34
2022/09/13 01:51:05;;;;;;;;;;;;;;;18.92;100.00;100969.13;5070583;28;19928;-33
2022/09/13 01:53:34;;;;;;;;;;;;;;;18.92;100.00;100973.94;5070387;28;20254;-33
2022/09/13 01:56:05;;;;;;;;;;;;;;;18.92;100.00;100971.13;5070722;28;19971;-33
2022/09/13 01:58:37;;;;;;;;;;;;;;;18.93;100.00;100965.09;5051035;28;19952;-33
2022/09/13 02:01:09;;;;;;;;;;;;;;;18.95;100.00;100961.09;5064859;28;20263;-34
2022/09/13 02:03:39;;;;;;;;;;;;;;;18.96;100.00;100963.59;5070788;28;19930;-39
2022/09/13 02:06:09;;;;;;;;;;;;;;;18.97;100.00;100970.88;5070680;28;20046;-35
2022/09/13 02:08:40;;;;;;;;;;;;;;;18.97;100.00;100962.41;5070198;28;19955;-35
2022/09/13 02:11:09;;;;;;;;;;;;;;;18.97;100.00;100964.41;5070534;28;20454;-43
2022/09/13 02:13:39;;;;;;;;;;;;;;;18.98;100.00;100966.88;5057551;28;20389;-37
2022/09/13 02:16:11;;;;;;;;;;;;;;;18.99;100.00;100967.69;5073365;28;19970;-38
2022/09/13 02:18:45;;;;;;;;;;;;;;;19.00;100.00;100963.69;5074289;28;20400;-36
2022/09/13 02:21:15;;;;;;;;;;;;;;;18.99;100.00;100967.69;5074449;28;19960;-32
2022/09/13 02:23:45;;;;;;;;;;;;;;;19.00;100.00;100980.66;5074330;28;20355;-33
2022/09/13 02:26:14;;;;;;;;;;;;;;;18.96;100.00;100976.91;5074223;28;19925;-34
2022/09/13 02:28:45;;;;;;;;;;;;;;;18.89;100.00;100980.31;5054938;28;20409;-38
2022/09/13 02:31:16;;;;;;;;;;;;;;;18.84;100.00;100984.19;5074331;28;19929;-40
2022/09/13 02:33:46;;;;;;;;;;;;;;;18.78;100.00;100977.13;5074225;28;20409;-39
2022/09/13 02:36:16;;;;;;;;;;;;;;;18.73;100.00;100982.19;5073348;28;19928;-33
2022/09/13 02:38:46;;;;;;;;;;;;;;;18.68;100.00;100973.91;5073763;28;19924;-34
2022/09/13 02:41:18;;;;;;;;;;;;;;;18.63;100.00;100977.78;5058634;28;20403;-34
2022/09/13 02:43:48;;;;;;;;;;;;;;;18.59;100.00;100979.66;5067943;28;19978;-35
2022/09/13 02:46:21;;;;;;;;;;;;;;;18.54;100.00;100975.03;5073770;28;19928;-34
2022/09/13 02:48:58;;;;;;;;;;;;;;;18.51;100.00;100975.75;5073484;28;19974;-33
2022/09/13 02:51:29;;;;;;;;;;;;;;;18.46;100.00;100975.97;5073250;28;19990;-33
2022/09/13 02:54:04;;;;;;;;;;;;;;;18.42;100.00;100988.31;5073375;28;19925;-33
2022/09/13 02:56:35;;;;;;;;;;;;;;;18.37;100.00;100977.25;5072857;28;19934;-33
2022/09/13 02:59:05;;;;;;;;;;;;;;;18.34;100.00;100986.41;5073502;28;19970;-32
2022/09/13 03:01:35;;;;;;;;;;;;;;;18.30;100.00;100989.09;5073713;28;20285;-40
2022/09/13 03:04:03;;;;;;;;;;;;;;;18.29;100.00;100984.63;5063848;28;19932;-37
2022/09/13 03:06:30;;;;;;;;;;;;;;;18.27;100.00;100983.31;5073604;28;19982;-32
2022/09/13 03:09:00;;;;;;;;;;;;;;;18.22;100.00;100996.47;5072969;28;19924;-34
2022/09/13 03:11:32;;;;;;;;;;;;;;;18.19;100.00;100997.19;5072664;28;20463;-36
2022/09/13 03:14:18;;;;;;;;;;;;;;;18.13;100.00;100987.28;5072938;28;20400;-33
2022/09/13 03:16:55;;;;;;;;;;;;;;;18.08;100.00;100992.31;5073292;28;19929;-34
2022/09/13 03:19:29;;;;;;;;;;;;;;;18.04;100.00;100995.00;5067669;28;19928;-39
2022/09/13 03:22:06;;;;;;;;;;;;;;;18.00;100.00;101002.50;5073369;28;19929;-33
2022/09/13 03:24:38;;;;;;;;;;;;;;;17.98;100.00;100995.59;5067052;28;20378;-38
2022/09/13 03:27:10;;;;;;;;;;;;;;;17.95;100.00;100999.09;5071742;28;20275;-37
2022/09/13 03:29:41;;;;;;;;;;;;;;;17.93;100.00;100999.44;5069117;28;19994;-35
2022/09/13 03:32:18;;;;;;;;;;;;;;;17.93;100.00;101005.09;5070592;28;20499;-37
2022/09/13 03:34:49;;;;;;;;;;;;;;;17.92;100.00;100999.78;5071548;28;19929;-37
2022/09/13 03:37:22;;;;;;;;;;;;;;;17.91;100.00;100998.94;5071789;28;19967;-32
2022/09/13 03:39:53;;;;;;;;;;;;;;;17.90;100.00;101006.59;5070925;28;20008;-42
2022/09/13 03:42:25;;;;;;;;;;;;;;;17.90;100.00;101000.13;5072615;28;19935;-36
2022/09/13 03:44:55;;;;;;;;;;;;;;;17.89;100.00;100999.28;5072532;28;19924;-34
2022/09/13 03:47:25;;;;;;;;;;;;;;;17.89;100.00;100996.47;5072080;28;19929;-34
2022/09/13 03:49:53;;;;;;;;;;;;;;;17.89;100.00;100998.47;5072085;28;19990;-36
2022/09/13 03:52:20;;;;;;;;;;;;;;;17.89;100.00;101007.75;5052741;28;20042;-39
2022/09/13 03:54:48;;;;;;;;;;;;;;;17.88;100.00;100999.63;5066072;28;20067;-36
2022/09/13 03:57:16;;;;;;;;;;;;;;;17.89;100.00;100998.47;5072501;28;19954;-38
2022/09/13 03:59:46;;;;;;;;;;;;;;;17.88;100.00;100994.81;5071618;28;19928;-34
2022/09/13 04:02:14;;;;;;;;;;;;;;;17.88;100.00;101006.09;5057894;28;19929;-32
2022/09/13 04:04:44;;;;;;;;;;;;;;;17.87;100.00;100997.97;5072110;28;19959;-33
2022/09/13 04:07:12;;;;;;;;;;;;;;;17.87;100.00;101003.63;5052341;28;20336;-44
2022/09/13 04:09:40;;;;;;;;;;;;;;;17.86;100.00;100999.97;5072019;28;19928;-33
2022/09/13 04:12:09;;;;;;;;;;;;;;;17.88;100.00;101002.47;5072206;28;19928;-32
2022/09/13 04:14:36;;;;;;;;;;;;;;;17.88;100.00;101003.28;5071231;28;20393;-38
2022/09/13 04:17:04;;;;;;;;;;;;;;;17.89;100.00;100999.28;5071865;28;19929;-32
2022/09/13 04:19:31;;;;;;;;;;;;;;;17.89;100.00;100999.28;5057067;28;19928;-35
2022/09/13 04:22:00;;;;;;;;;;;;;;;17.92;100.00;101002.59;5071262;28;19928;-38
2022/09/13 04:24:28;;;;;;;;;;;;;;;17.92;100.00;101002.59;5072063;28;19928;-33
2022/09/13 04:26:56;;;;;;;;;;;;;;;17.93;100.00;101002.25;5071725;28;19990;-33
2022/09/13 04:29:25;;;;;;;;;;;;;;;17.93;100.00;101007.91;5070494;28;19932;-36
2022/09/13 04:31:53;;;;;;;;;;;;;;;17.94;100.00;101006.72;5072056;28;19932;-33
2022/09/13 04:34:21;;;;;;;;;;;;;;;17.95;100.00;101007.56;5072059;28;19924;-40
2022/09/13 04:36:49;;;;;;;;;;;;;;;17.96;100.00;101009.22;5070578;28;19990;-35
2022/09/13 04:39:18;;;;;;;;;;;;;;;17.97;100.00;101006.06;5071754;28;19982;-33
2022/09/13 04:41:47;;;;;;;;;;;;;;;17.97;100.00;101010.88;5071337;28;19970;-38
2022/09/13 04:44:15;;;;;;;;;;;;;;;17.99;100.00;101014.16;5070853;28;20358;-32
2022/09/13 04:46:43;;;;;;;;;;;;;;;17.99;100.00;101011.31;5070857;28;19928;-37
2022/09/13 04:49:11;;;;;;;;;;;;;;;18.00;100.00;101010.97;5070880;28;20034;-33
2022/09/13 04:51:38;;;;;;;;;;;;;;;18.00;100.00;101010.97;5069972;28;19972;-33
2022/09/13 04:54:06;;;;;;;;;;;;;;;18.01;100.00;101015.47;5071662;28;19928;-37
2022/09/13 04:56:38;;;;;;;;;;;;;;;18.01;100.00;101018.28;5070301;28;19954;-33
2022/09/13 04:59:06;;;;;;;;;;;;;;;18.01;100.00;101017.44;5067899;28;19925;-36
2022/09/13 05:01:34;;;;;;;;;;;;;;;17.99;100.00;101017.78;5071236;28;19986;-33
2022/09/13 05:04:02;;;;;;;;;;;;;;;17.97;100.00;101023.00;5070370;28;19971;-36
2022/09/13 05:06:29;;;;;;;;;;;;;;;17.95;100.00;101022.50;5071148;28;19956;-32
2022/09/13 05:08:57;;;;;;;;;;;;;;;17.92;100.00;101026.00;5070648;28;19928;-33
2022/09/13 05:11:25;;;;;;;;;;;;;;;17.92;100.00;101026.00;5069935;28;20339;-38
2022/09/13 05:13:55;;;;;;;;;;;;;;;17.89;100.00;101026.69;5070986;28;19968;-40
2022/09/13 05:16:22;;;;;;;;;;;;;;;17.87;100.00;101029.88;5070764;28;19932;-37
2022/09/13 05:18:50;;;;;;;;;;;;;;;17.86;100.00;101035.84;5068528;28;20079;-36
2022/09/13 05:21:18;;;;;;;;;;;;;;;17.84;100.00;101041.84;5055044;28;19931;-32
2022/09/13 05:23:48;;;;;;;;;;;;;;;17.82;100.00;101032.06;5069376;28;19970;-32
2022/09/13 05:26:16;;;;;;;;;;;;;;;17.81;100.00;101034.06;5068453;28;20309;-32
2022/09/13 05:28:43;;;;;;;;;;;;;;;17.81;100.00;101033.22;5068949;28;20444;-35
2022/09/13 05:31:15;;;;;;;;;;;;;;;17.81;100.00;101039.69;5068216;28;19932;-39
2022/09/13 05:33:43;;;;;;;;;;;;;;;17.81;100.00;101047.34;5069809;28;19928;-36
2022/09/13 05:36:11;;;;;;;;;;;;;;;17.80;100.00;101043.69;5070055;28;19932;-32
2022/09/13 05:38:38;;;;;;;;;;;;;;;17.79;100.00;101038.38;5067092;28;19952;-33
2022/09/13 05:41:06;;;;;;;;;;;;;;;17.78;100.00;101043.25;5070269;28;20344;-39
2022/09/13 05:43:34;;;;;;;;;;;;;;;17.78;100.00;101048.88;5069843;28;19933;-36
2022/09/13 05:46:02;;;;;;;;;;;;;;;17.78;100.00;101048.06;5069807;28;20402;-32
2022/09/13 05:48:34;;;;;;;;;;;;;;;17.79;100.00;101055.31;5070205;28;20345;-36
2022/09/13 05:51:05;;;;;;;;;;;;;;;17.80;100.00;101045.69;5073750;28;19982;-36
2022/09/13 05:53:33;;;;;;;;;;;;;;;17.80;100.00;101056.97;5072756;28;20458;-36
2022/09/13 05:56:01;;;;;;;;;;;;;;;17.79;100.00;101055.31;5070368;28;19924;-33
2022/09/13 05:58:29;;;;;;;;;;;;;;;17.79;100.00;101060.97;5074141;28;20330;-34
2022/09/13 06:00:57;;;;;;;;;;;;;;;17.79;100.00;101063.78;5073428;28;19978;-33
2022/09/13 06:03:24;;;;;;;;;;;;;;;17.79;100.00;101073.09;5072764;28;20031;-31
2022/09/13 06:05:56;;;;;;;;;;;;;;;17.78;100.00;101081.94;5073772;28;19982;-33
2022/09/13 06:08:23;;;;;;;;;;;;;;;17.77;100.00;101071.81;5073571;28;19989;-33
2022/09/13 06:10:55;;;;;;;;;;;;;;;17.77;100.00;101077.44;5074737;28;19928;-32
2022/09/13 06:13:23;;;;;;;;;;;;;;;17.78;100.00;101079.09;5059172;28;19958;-32
2022/09/13 06:15:51;;;;;;;;;;;;;;;17.78;100.00;101090.41;5074022;28;19963;-37
2022/09/13 06:18:18;;;;;;;;;;;;;;;17.76;100.00;101085.09;5074191;28;19924;-33
2022/09/13 06:20:46;;;;;;;;;;;;;;;17.76;100.00;101090.75;5073798;28;20439;-35
2022/09/13 06:23:15;;;;;;;;;;;;;;;17.74;100.00;101090.25;5074257;28;19977;-35
2022/09/13 06:25:43;;;;;;;;;;;;;;;17.75;100.00;101099.53;5065357;28;19960;-32
2022/09/13 06:28:10;;;;;;;;;;;;;;;17.74;100.00;101098.72;5073519;28;19924;-32
2022/09/13 06:30:38;;;;;;;;;;;;;;;17.79;100.00;101094.84;5073682;28;19947;-32
2022/09/13 06:33:05;;;;;;;;;;;;;;;17.86;100.00;101086.66;5074324;28;19932;-32
2022/09/13 06:35:33;;;;;;;;;;;;;;;17.92;100.00;101082.50;5073002;28;19982;-34
2022/09/13 06:38:00;;;;;;;;;;;;;;;17.96;100.00;101082.63;5074330;28;19925;-37
2022/09/13 06:40:29;;;;;;;;;;;;;;;17.96;100.00;101088.28;5073598;28;19971;-34
2022/09/13 06:42:57;;;;;;;;;;;;;;;17.95;100.00;101083.81;5073099;28;19978;-32
2022/09/13 06:45:25;;;;;;;;;;;;;;;18.00;100.00;101084.41;5073686;28;20320;-33
2022/09/13 06:47:53;;;;;;;;;;;;;;;18.18;100.00;101085.94;5074118;28;20011;-32
2022/09/13 06:50:21;;;;;;;;;;;;;;;18.52;100.00;101086.78;5054858;28;19925;-33
2022/09/13 06:52:49;;;;;;;;;;;;;;;18.98;100.00;101085.66;5073601;28;19924;-33
2022/09/13 06:55:16;;;;;;;;;;;;;;;19.35;100.00;101083.69;5073448;28;19978;-32
2022/09/13 06:57:45;;;;;;;;;;;;;;;19.50;100.00;101088.69;5072810;28;20373;-32
2022/09/13 07:00:13;;;;;;;;;;;;;;;19.57;100.00;101090.94;5054185;28;19936;-33
2022/09/13 07:02:41;;;;;;;;;;;;;;;19.84;100.00;101084.50;5072713;28;19929;-35
2022/09/13 07:05:09;;;;;;;;;;;;;;;20.27;100.00;101086.66;5073330;28;19929;-33
2022/09/13 07:07:37;;;;;;;;;;;;;;;20.46;100.00;101085.19;5073332;28;19924;-34
2022/09/13 07:10:05;;;;;;;;;;;;;;;20.41;100.00;101079.78;5072450;28;20243;-35
2022/09/13 07:12:32;;;;;;;;;;;;;;;20.34;100.00;101085.22;5073332;28;20362;-34
2022/09/13 07:15:01;;;;;;;;;;;;;;;20.55;100.00;101089.53;5073260;28;19974;-32
2022/09/13 07:17:29;;;;;;;;;;;;;;;20.94;100.00;101096.31;5072731;28;19924;-35
2022/09/13 07:19:58;;;;;;;;;;;;;;;21.46;100.00;101095.25;5073120;28;19928;-35
2022/09/13 07:22:26;;;;;;;;;;;;;;;21.92;100.00;101092.72;5071369;28;19978;-35
2022/09/13 07:24:54;;;;;;;;;;;;;;;22.13;100.00;101092.41;5072538;28;19962;-33
2022/09/13 07:27:21;;;;;;;;;;;;;;;22.46;100.00;101091.88;5072884;28;20436;-34
2022/09/13 07:29:49;;;;;;;;;;;;;;;22.97;100.00;101099.06;5072935;28;19935;-38
2022/09/13 07:32:18;;;;;;;;;;;;;;;23.56;100.00;101094.84;5071816;28;19928;-40
2022/09/13 07:34:46;;;;;;;;;;;;;;;24.14;100.00;101090.84;5072874;28;19925;-37
2022/09/13 07:37:13;;;;;;;;;;;;;;;24.57;95.75;101097.97;5072472;28;19947;-32
2022/09/13 07:39:41;;;;;;;;;;;;;;;25.04;92.79;101109.53;5072208;28;19970;-33
2022/09/13 07:42:08;;;;;;;;;;;;;;;25.38;85.73;101113.13;5072665;28;19935;-37
2022/09/13 07:44:36;;;;;;;;;;;;;;;25.60;80.24;101108.41;5058071;28;19924;-39
2022/09/13 07:47:06;;;;;;;;;;;;;;;25.53;79.23;101107.56;5071586;28;19978;-34
2022/09/13 07:49:35;;;;;;;;;;;;;;;25.64;80.76;101115.00;5071936;28;19932;-35
2022/09/13 07:52:02;;;;;;;;;;;;;;;25.95;76.68;101121.38;5071635;28;20048;-33
2022/09/13 07:54:30;;;;;;;;;;;;;;;26.30;75.93;101118.78;5072878;28;19925;-38
2022/09/13 07:56:57;;;;;;;;;;;;;;;26.60;72.05;101124.22;5072466;28;19924;-38
2022/09/13 07:59:25;;;;;;;;;;;;;;;26.97;70.66;101123.19;5071405;28;20385;-34
2022/09/13 08:01:56;;;;;;;;;;;;;;;27.39;69.07;101116.69;5057404;28;20387;-33
2022/09/13 08:04:25;;;;;;;;;;;;;;;27.75;64.70;101124.09;5072137;28;19935;-34
2022/09/13 08:06:54;;;;;;;;;;;;;;;28.08;63.27;101124.88;5071327;28;20408;-42
2022/09/13 08:09:22;;;;;;;;;;;;;;;28.36;61.08;101126.91;5072169;28;20336;-32
2022/09/13 08:11:51;;;;;;;;;;;;;;;28.48;58.77;101125.63;5071665;28;19998;-33
2022/09/13 08:14:19;;;;;;;;;;;;;;;28.51;56.00;101131.34;5071055;28;19924;-38
2022/09/13 08:16:47;;;;;;;;;;;;;;;28.47;54.96;101124.81;5071926;28;20350;-41
2022/09/13 08:19:16;;;;;;;;;;;;;;;28.44;54.81;101126.44;5071998;28;19932;-35
2022/09/13 08:21:44;;;;;;;;;;;;;;;28.54;57.83;101130.53;5071151;28;19982;-38
2022/09/13 08:24:14;;;;;;;;;;;;;;;28.72;55.75;101130.44;5071340;28;20390;-32
2022/09/13 08:26:42;;;;;;;;;;;;;;;28.93;54.74;101132.44;5071967;28;20381;-39
2022/09/13 08:29:11;;;;;;;;;;;;;;;29.14;55.27;101141.75;5070598;28;19932;-32
2022/09/13 08:31:39;;;;;;;;;;;;;;;29.47;54.58;101130.88;5051700;28;19924;-40
2022/09/13 08:34:07;;;;;;;;;;;;;;;29.59;49.40;101132.41;5065179;28;19924;-34
2022/09/13 08:36:35;;;;;;;;;;;;;;;29.33;50.35;101131.78;5071769;28;19994;-34
2022/09/13 08:39:03;;;;;;;;;;;;;;;29.27;51.56;101135.50;5071521;28;19990;-42
2022/09/13 08:41:44;;;;;;;;;;;;;;;29.34;50.31;101136.28;5056092;28;19928;-35
2022/09/13 08:44:17;;;;;;;;;;;;;;;29.14;49.12;101150.38;5071581;28;19925;-35
2022/09/13 08:46:46;;;;;;;;;;;;;;;28.94;51.57;101155.00;5057854;28;19997;-36
2022/09/13 08:49:17;;;;;;;;;;;;;;;28.97;50.77;101142.69;5070533;28;19925;-37
2022/09/13 08:51:47;;;;;;;;;;;;;;;29.20;52.71;101149.91;5067132;28;19982;-33
2022/09/13 08:54:15;;;;;;;;;;;;;;;29.53;49.36;101134.13;5071418;28;19929;-35
2022/09/13 08:56:50;;;;;;;;;;;;;;;29.76;47.97;101137.22;5070671;28;19928;-35
2022/09/13 08:59:33;;;;;;;;;;;;;;;29.67;46.87;101140.56;5071448;28;19951;-34
2022/09/13 09:02:07;;;;;;;;;;;;;;;29.51;48.97;101130.84;5071450;28;19952;-38
2022/09/13 09:04:38;;;;;;;;;;;;;;;29.52;46.28;101136.19;5071525;28;19928;-34
2022/09/13 09:07:10;;;;;;;;;;;;;;;29.62;49.08;101138.13;5071400;28;19955;-37
2022/09/13 09:09:40;;;;;;;;;;;;;;;29.78;47.04;101129.78;5070586;28;19929;-41
2022/09/13 09:12:15;;;;;;;;;;;;;;;29.89;47.83;101132.56;5071275;28;19932;-36
2022/09/13 09:14:45;;;;;;;;;;;;;;;30.08;45.91;101134.06;5071220;28;20359;-37
2022/09/13 09:17:14;;;;;;;;;;;;;;;30.27;45.60;101135.50;5070230;28;19963;-34
2022/09/13 09:19:43;;;;;;;;;;;;;;;30.22;42.88;101133.09;5071234;28;19982;-37
2022/09/13 09:22:13;;;;;;;;;;;;;;;29.85;44.88;101146.16;5071228;28;19928;-34
2022/09/13 09:24:45;;;;;;;;;;;;;;;29.71;45.11;101140.56;5058509;28;19924;-38
2022/09/13 09:27:15;;;;;;;;;;;;;;;29.78;46.09;101140.47;5070219;28;20335;-37
2022/09/13 09:29:43;;;;;;;;;;;;;;;29.89;45.63;101137.50;5074908;28;20290;-36
2022/09/13 09:32:17;;;;;;;;;;;;;;;29.99;43.68;101139.47;5074429;28;19925;-33
2022/09/13 09:34:52;;;;;;;;;;;;;;;30.00;45.26;101144.00;5075246;28;19935;-39
2022/09/13 09:37:21;;;;;;;;;;;;;;;30.00;44.01;101146.88;5074281;28;20407;-36
2022/09/13 09:39:49;;;;;;;;;;;;;;;29.97;43.12;101147.72;5074813;28;19970;-33
2022/09/13 09:42:23;;;;;;;;;;;;;;;29.86;44.61;101147.00;5066252;28;19934;-38
2022/09/13 09:44:52;;;;;;;;;;;;;;;29.90;43.58;101147.78;5074498;28;19929;-33
2022/09/13 09:47:21;;;;;;;;;;;;;;;29.94;42.87;101143.63;5074678;28;19924;-37
2022/09/13 09:50:09;;;;;;;;;;;;;;;29.96;42.86;101137.44;5075079;28;19936;-33
2022/09/13 09:52:39;;;;;;;;;;;;;;;29.88;43.12;101144.50;5064996;28;19928;-35
2022/09/13 09:55:27;;;;;;;;;;;;;;;29.77;43.67;101128.16;5074933;28;19988;-32
2022/09/13 09:57:58;;;;;;;;;;;;;;;29.79;41.63;101131.41;5062431;28;19925;-35
2022/09/13 10:00:27;;;;;;;;;;;;;;;29.79;42.44;101134.28;5073898;28;20450;-38
2022/09/13 10:02:58;;;;;;;;;;;;;;;29.73;42.83;101135.19;5074338;28;19924;-38
2022/09/13 10:05:26;;;;;;;;;;;;;;;29.66;43.30;101138.94;5074502;28;20389;-32
2022/09/13 10:07:58;;;;;;;;;;;;;;;29.72;44.38;101140.13;5074013;28;19925;-35
2022/09/13 10:10:30;;;;;;;;;;;;;;;29.80;42.84;101138.81;5074531;28;19928;-34
2022/09/13 10:12:59;;;;;;;;;;;;;;;29.86;43.21;101135.47;5073287;28;19933;-32
2022/09/13 10:15:31;;;;;;;;;;;;;;;29.86;42.56;101135.47;5074300;28;20467;-34
2022/09/13 10:18:17;;;;;;;;;;;;;;;29.69;43.19;101126.59;5073961;28;20435;-35
2022/09/13 10:21:06;;;;;;;;;;;;;;;29.57;41.68;101130.00;5073500;28;20047;-39
2022/09/13 10:23:34;;;;;;;;;;;;;;;29.55;42.92;101134.53;5073947;28;20385;-39
2022/09/13 10:26:04;;;;;;;;;;;;;;;29.55;42.89;101141.09;5074373;28;19925;-33
2022/09/13 10:28:35;;;;;;;;;;;;;;;29.59;42.59;101143.91;5073268;28;19939;-38
2022/09/13 10:31:04;;;;;;;;;;;;;;;29.67;42.89;101146.31;5074193;28;20004;-33
2022/09/13 10:33:34;;;;;;;;;;;;;;;29.78;42.25;101135.53;5073705;28;19976;-32
2022/09/13 10:36:04;;;;;;;;;;;;;;;29.87;41.11;101137.13;5074013;28;19970;-41
2022/09/13 10:38:33;;;;;;;;;;;;;;;29.76;40.01;101128.59;5055624;28;19963;-41
2022/09/13 10:41:02;;;;;;;;;;;;;;;29.50;40.77;101135.78;5073126;28;20299;-40
2022/09/13 10:43:31;;;;;;;;;;;;;;;29.29;42.29;101130.97;5073475;28;19924;-33
2022/09/13 10:46:01;;;;;;;;;;;;;;;29.09;41.32;101136.44;5073674;28;20334;-41
2022/09/13 10:48:31;;;;;;;;;;;;;;;29.02;42.69;101139.34;5072930;28;19939;-33
2022/09/13 10:51:02;;;;;;;;;;;;;;;28.99;41.88;101139.34;5073920;28;19931;-33
2022/09/13 10:53:33;;;;;;;;;;;;;;;28.93;43.19;101136.13;5073705;28;19925;-33
2022/09/13 10:56:01;;;;;;;;;;;;;;;28.80;41.70;101132.88;5058536;28;19924;-35
2022/09/13 10:58:29;;;;;;;;;;;;;;;28.66;41.69;101132.94;5073629;28;19967;-33
2022/09/13 11:01:23;;;;;;;;;;;;;;;28.57;42.34;101123.97;5071936;28;19977;-33
2022/09/13 11:04:03;;;;;;;;;;;;;;;28.51;43.15;101133.41;5072848;28;19928;-33
2022/09/13 11:06:34;;;;;;;;;;;;;;;28.39;43.46;101135.47;5071910;28;20039;-34
2022/09/13 11:09:07;;;;;;;;;;;;;;;28.35;43.87;101131.81;5072480;28;19929;-35
2022/09/13 11:11:39;;;;;;;;;;;;;;;28.35;44.66;101136.75;5059329;28;19978;-36
2022/09/13 11:14:16;;;;;;;;;;;;;;;28.35;43.08;101131.81;5073139;28;19928;-34
2022/09/13 11:16:51;;;;;;;;;;;;;;;28.32;43.61;101132.66;5058495;28;20006;-33
2022/09/13 11:19:38;;;;;;;;;;;;;;;28.42;43.57;101128.91;5073027;28;20019;-33
2022/09/13 11:22:16;;;;;;;;;;;;;;;28.55;42.86;101137.91;5063066;28;20362;-33
2022/09/13 11:24:53;;;;;;;;;;;;;;;28.66;42.73;101137.84;5072371;28;19981;-34
2022/09/13 11:27:25;;;;;;;;;;;;;;;28.72;42.38;101125.53;5073319;28;19925;-36
2022/09/13 11:30:01;;;;;;;;;;;;;;;28.82;43.74;101135.34;5072264;28;20385;-33
2022/09/13 11:32:38;;;;;;;;;;;;;;;28.89;42.41;101135.31;5072977;28;19929;-38
2022/09/13 11:35:22;;;;;;;;;;;;;;;28.93;42.16;101144.75;5072538;28;20053;-36
2022/09/13 11:37:55;;;;;;;;;;;;;;;29.01;42.39;101142.63;5052274;28;19935;-34
2022/09/13 11:40:28;;;;;;;;;;;;;;;29.04;42.21;101141.81;5067641;28;19973;-33
2022/09/13 11:43:05;;;;;;;;;;;;;;;29.09;42.31;101145.06;5072744;28;19929;-36
2022/09/13 11:45:38;;;;;;;;;;;;;;;29.06;41.60;101134.41;5071382;28;19924;-32
2022/09/13 11:48:27;;;;;;;;;;;;;;;29.02;41.40;101133.59;5072863;28;19936;-33
2022/09/13 11:51:01;;;;;;;;;;;;;;;28.95;41.76;101141.47;5067552;28;19928;-34
2022/09/13 11:53:49;;;;;;;;;;;;;;;28.77;41.08;101127.16;5072614;28;19928;-32
2022/09/13 11:56:21;;;;;;;;;;;;;;;28.69;42.51;101131.28;5072190;28;19951;-32
2022/09/13 11:58:51;;;;;;;;;;;;;;;28.59;42.17;101120.63;5071857;28;19982;-33
2022/09/13 12:01:22;;;;;;;;;;;;;;;28.46;41.84;101128.91;5072528;28;19924;-35
2022/09/13 12:03:52;;;;;;;;;;;;;;;28.21;42.24;101110.94;5072343;28;19933;-32
2022/09/13 12:06:23;;;;;;;;;;;;;;;27.96;41.69;101116.72;5071539;28;20320;-33
2022/09/13 12:08:53;;;;;;;;;;;;;;;27.77;43.92;101126.56;5061425;28;19928;-38
2022/09/13 12:11:23;;;;;;;;;;;;;;;27.64;43.64;101116.72;5071699;28;20466;-37
2022/09/13 12:13:52;;;;;;;;;;;;;;;27.58;43.30;101116.31;5071514;28;19990;-41
2022/09/13 12:16:23;;;;;;;;;;;;;;;27.47;43.42;101106.03;5071592;28;19924;-32
2022/09/13 12:18:52;;;;;;;;;;;;;;;27.38;43.84;101103.56;5072314;28;20019;-34
2022/09/13 12:21:22;;;;;;;;;;;;;;;27.25;44.50;101106.03;5053004;28;19978;-41
2022/09/13 12:23:54;;;;;;;;;;;;;;;27.02;44.91;101105.56;5072168;28;19978;-35
2022/09/13 12:26:25;;;;;;;;;;;;;;;26.86;45.15;101090.78;5071183;28;19970;-42
2022/09/13 12:28:54;;;;;;;;;;;;;;;26.74;45.79;101086.25;5070234;28;19928;-32
2022/09/13 12:31:23;;;;;;;;;;;;;;;26.65;46.48;101085.78;5071594;28;20282;-36
2022/09/13 12:33:50;;;;;;;;;;;;;;;26.56;46.33;101085.38;5070740;28;20385;-41
2022/09/13 12:36:38;;;;;;;;;;;;;;;26.45;46.95;101088.19;5053866;28;20278;-34
2022/09/13 12:39:15;;;;;;;;;;;;;;;26.40;47.87;101097.13;5071540;28;19971;-34
2022/09/13 12:41:50;;;;;;;;;;;;;;;26.34;47.02;101102.44;5071003;28;19928;-42
2022/09/13 12:44:23;;;;;;;;;;;;;;;26.25;48.37;101104.00;5071705;28;19959;-32
2022/09/13 12:47:10;;;;;;;;;;;;;;;26.22;49.38;101094.16;5071635;28;19950;-32